sensor_id;sensor_type;location;lat;lon;timestamp;temperature;humidity
59301;DHT22;45073;52.740;6.784;2022-12-20T00:00:48;9.90;99.90
59301;DHT22;45073;52.740;6.784;2022-12-20T00:03:14;9.90;99.90
59301;DHT22;45073;52.740;6.784;2022-12-20T00:05:41;9.90;99.90
59301;DHT22;45073;52.740;6.784;2022-12-20T00:08:08;9.90;99.90
59301;DHT22;45073;52.740;6.784;2022-12-20T00:10:35;9.90;99.90
59301;DHT22;45073;52.740;6.784;2022-12-20T00:13:02;9.90;99.90
59301;DHT22;45073;52.740;6.784;2022-12-20T00:15:27;10.00;99.90
59301;DHT22;45073;52.740;6.784;2022-12-20T00:17:53;9.90;99.90
59301;DHT22;45073;52.740;6.784;2022-12-20T00:20:18;9.90;99.90
59301;DHT22;45073;52.740;6.784;2022-12-20T00:22:44;10.00;99.90
59301;DHT22;45073;52.740;6.784;2022-12-20T00:25:10;10.00;99.90
59301;DHT22;45073;52.740;6.784;2022-12-20T00:27:36;9.90;99.90
59301;DHT22;45073;52.740;6.784;2022-12-20T00:30:02;9.90;99.90
59301;DHT22;45073;52.740;6.784;2022-12-20T00:32:27;9.90;99.90
59301;DHT22;45073;52.740;6.784;2022-12-20T00:34:53;9.90;99.90
59301;DHT22;45073;52.740;6.784;2022-12-20T00:37:18;10.00;99.90
59301;DHT22;45073;52.740;6.784;2022-12-20T00:39:44;10.00;99.90
59301;DHT22;45073;52.740;6.784;2022-12-20T00:42:09;10.00;99.90
59301;DHT22;45073;52.740;6.784;2022-12-20T00:44:35;10.00;99.90
59301;DHT22;45073;52.740;6.784;2022-12-20T00:47:01;10.00;99.90
59301;DHT22;45073;52.740;6.784;2022-12-20T00:49:26;10.10;99.90
59301;DHT22;45073;52.740;6.784;2022-12-20T00:51:52;10.10;99.90
59301;DHT22;45073;52.740;6.784;2022-12-20T00:54:17;10.10;99.90
59301;DHT22;45073;52.740;6.784;2022-12-20T00:56:43;10.10;99.90
59301;DHT22;45073;52.740;6.784;2022-12-20T00:59:09;10.10;99.90
59301;DHT22;45073;52.740;6.784;2022-12-20T01:01:34;10.10;99.90
59301;DHT22;45073;52.740;6.784;2022-12-20T01:04:01;10.10;99.90
59301;DHT22;45073;52.740;6.784;2022-12-20T01:06:27;10.10;99.90
59301;DHT22;45073;52.740;6.784;2022-12-20T01:08:54;10.10;99.90
59301;DHT22;45073;52.740;6.784;2022-12-20T01:11:28;10.10;99.90
59301;DHT22;45073;52.740;6.784;2022-12-20T01:13:55;10.10;99.90
59301;DHT22;45073;52.740;6.784;2022-12-20T01:16:32;10.00;99.90
59301;DHT22;45073;52.740;6.784;2022-12-20T01:18:59;10.10;99.90
59301;DHT22;45073;52.740;6.784;2022-12-20T01:21:26;10.10;99.90
59301;DHT22;45073;52.740;6.784;2022-12-20T01:23:52;10.00;99.90
59301;DHT22;45073;52.740;6.784;2022-12-20T01:26:21;10.10;99.90
59301;DHT22;45073;52.740;6.784;2022-12-20T01:28:48;10.00;99.90
59301;DHT22;45073;52.740;6.784;2022-12-20T01:31:16;10.00;99.90
59301;DHT22;45073;52.740;6.784;2022-12-20T01:33:43;10.00;99.90
59301;DHT22;45073;52.740;6.784;2022-12-20T01:36:18;10.00;99.90
59301;DHT22;45073;52.740;6.784;2022-12-20T01:38:44;10.00;99.90
59301;DHT22;45073;52.740;6.784;2022-12-20T01:41:15;10.00;99.90
59301;DHT22;45073;52.740;6.784;2022-12-20T01:43:48;10.00;99.90
59301;DHT22;45073;52.740;6.784;2022-12-20T01:46:15;10.00;99.90
59301;DHT22;45073;52.740;6.784;2022-12-20T01:48:42;10.10;99.90
59301;DHT22;45073;52.740;6.784;2022-12-20T01:51:09;10.10;99.90
59301;DHT22;45073;52.740;6.784;2022-12-20T01:53:35;10.10;99.90
59301;DHT22;45073;52.740;6.784;2022-12-20T01:56:04;10.10;99.90
59301;DHT22;45073;52.740;6.784;2022-12-20T01:58:30;10.10;99.90
59301;DHT22;45073;52.740;6.784;2022-12-20T02:00:56;10.10;99.90
59301;DHT22;45073;52.740;6.784;2022-12-20T02:03:22;10.20;99.90
59301;DHT22;45073;52.740;6.784;2022-12-20T02:05:48;10.20;99.90
59301;DHT22;45073;52.740;6.784;2022-12-20T02:08:16;10.20;99.90
59301;DHT22;45073;52.740;6.784;2022-12-20T02:16:06;10.30;99.90
59301;DHT22;45073;52.740;6.784;2022-12-20T02:18:48;10.30;99.90
59301;DHT22;45073;52.740;6.784;2022-12-20T02:26:57;10.20;99.90
59301;DHT22;45073;52.740;6.784;2022-12-20T02:32:21;10.30;99.90
59301;DHT22;45073;52.740;6.784;2022-12-20T02:34:50;10.30;99.90
59301;DHT22;45073;52.740;6.784;2022-12-20T02:37:16;10.30;99.90
59301;DHT22;45073;52.740;6.784;2022-12-20T02:39:43;10.30;99.90
59301;DHT22;45073;52.740;6.784;2022-12-20T02:42:12;10.30;99.90
59301;DHT22;45073;52.740;6.784;2022-12-20T02:44:47;10.40;99.90
59301;DHT22;45073;52.740;6.784;2022-12-20T02:47:45;10.40;99.90
59301;DHT22;45073;52.740;6.784;2022-12-20T02:50:15;10.40;99.90
59301;DHT22;45073;52.740;6.784;2022-12-20T02:52:42;10.40;99.90
59301;DHT22;45073;52.740;6.784;2022-12-20T02:55:09;10.40;99.90
59301;DHT22;45073;52.740;6.784;2022-12-20T02:57:51;10.40;99.90
59301;DHT22;45073;52.740;6.784;2022-12-20T03:00:21;10.40;99.90
59301;DHT22;45073;52.740;6.784;2022-12-20T03:02:48;10.40;99.90
59301;DHT22;45073;52.740;6.784;2022-12-20T03:05:36;10.40;99.90
59301;DHT22;45073;52.740;6.784;2022-12-20T03:08:04;10.40;99.90
59301;DHT22;45073;52.740;6.784;2022-12-20T03:10:29;10.30;99.90
59301;DHT22;45073;52.740;6.784;2022-12-20T03:12:55;10.40;99.90
59301;DHT22;45073;52.740;6.784;2022-12-20T03:15:21;10.30;99.90
59301;DHT22;45073;52.740;6.784;2022-12-20T03:17:46;10.40;99.90
59301;DHT22;45073;52.740;6.784;2022-12-20T03:20:12;10.30;99.90
59301;DHT22;45073;52.740;6.784;2022-12-20T03:22:38;10.30;99.90
59301;DHT22;45073;52.740;6.784;2022-12-20T03:25:04;10.30;99.90
59301;DHT22;45073;52.740;6.784;2022-12-20T03:27:30;10.30;99.90
59301;DHT22;45073;52.740;6.784;2022-12-20T03:29:55;10.30;99.90
59301;DHT22;45073;52.740;6.784;2022-12-20T03:32:21;10.40;99.90
59301;DHT22;45073;52.740;6.784;2022-12-20T03:34:47;10.40;99.90
59301;DHT22;45073;52.740;6.784;2022-12-20T03:37:13;10.40;99.90
59301;DHT22;45073;52.740;6.784;2022-12-20T03:39:38;10.40;99.90
59301;DHT22;45073;52.740;6.784;2022-12-20T03:42:04;10.40;99.90
59301;DHT22;45073;52.740;6.784;2022-12-20T03:44:30;10.40;99.90
59301;DHT22;45073;52.740;6.784;2022-12-20T03:46:55;10.40;99.90
59301;DHT22;45073;52.740;6.784;2022-12-20T03:49:21;10.40;99.90
59301;DHT22;45073;52.740;6.784;2022-12-20T03:51:47;10.40;99.90
59301;DHT22;45073;52.740;6.784;2022-12-20T03:54:12;10.40;99.90
59301;DHT22;45073;52.740;6.784;2022-12-20T03:56:38;10.40;99.90
59301;DHT22;45073;52.740;6.784;2022-12-20T03:59:03;10.40;99.90
59301;DHT22;45073;52.740;6.784;2022-12-20T04:01:29;10.40;99.90
59301;DHT22;45073;52.740;6.784;2022-12-20T04:03:55;10.40;99.90
59301;DHT22;45073;52.740;6.784;2022-12-20T04:06:22;10.40;99.90
59301;DHT22;45073;52.740;6.784;2022-12-20T04:08:48;10.40;99.90
59301;DHT22;45073;52.740;6.784;2022-12-20T04:11:14;10.40;99.90
59301;DHT22;45073;52.740;6.784;2022-12-20T04:13:50;10.40;99.90
59301;DHT22;45073;52.740;6.784;2022-12-20T04:16:19;10.40;99.90
59301;DHT22;45073;52.740;6.784;2022-12-20T04:18:46;10.40;99.90
59301;DHT22;45073;52.740;6.784;2022-12-20T04:21:12;10.30;99.90
59301;DHT22;45073;52.740;6.784;2022-12-20T04:23:39;10.40;99.90
59301;DHT22;45073;52.740;6.784;2022-12-20T04:26:07;10.40;99.90
59301;DHT22;45073;52.740;6.784;2022-12-20T04:28:34;10.40;99.90
59301;DHT22;45073;52.740;6.784;2022-12-20T04:31:00;10.30;99.90
59301;DHT22;45073;52.740;6.784;2022-12-20T04:33:26;10.30;99.90
59301;DHT22;45073;52.740;6.784;2022-12-20T04:35:53;10.40;99.90
59301;DHT22;45073;52.740;6.784;2022-12-20T04:38:19;10.30;99.90
59301;DHT22;45073;52.740;6.784;2022-12-20T04:40:48;10.30;99.90
59301;DHT22;45073;52.740;6.784;2022-12-20T04:43:14;10.40;99.90
59301;DHT22;45073;52.740;6.784;2022-12-20T04:45:40;10.30;99.90
59301;DHT22;45073;52.740;6.784;2022-12-20T04:48:06;10.30;99.90
59301;DHT22;45073;52.740;6.784;2022-12-20T04:50:31;10.40;99.90
59301;DHT22;45073;52.740;6.784;2022-12-20T04:52:57;10.40;99.90
59301;DHT22;45073;52.740;6.784;2022-12-20T04:55:41;10.40;99.90
59301;DHT22;45073;52.740;6.784;2022-12-20T04:58:07;10.40;99.90
59301;DHT22;45073;52.740;6.784;2022-12-20T05:00:33;10.40;99.90
59301;DHT22;45073;52.740;6.784;2022-12-20T05:02:59;10.50;99.90
59301;DHT22;45073;52.740;6.784;2022-12-20T05:05:25;10.50;99.90
59301;DHT22;45073;52.740;6.784;2022-12-20T05:07:51;10.50;99.90
59301;DHT22;45073;52.740;6.784;2022-12-20T05:10:17;10.60;99.90
59301;DHT22;45073;52.740;6.784;2022-12-20T05:12:43;10.60;99.90
59301;DHT22;45073;52.740;6.784;2022-12-20T05:15:09;10.70;99.90
59301;DHT22;45073;52.740;6.784;2022-12-20T05:17:35;10.70;99.90
59301;DHT22;45073;52.740;6.784;2022-12-20T05:20:01;10.70;99.90
59301;DHT22;45073;52.740;6.784;2022-12-20T05:22:27;10.80;99.90
59301;DHT22;45073;52.740;6.784;2022-12-20T05:25:11;10.80;99.90
59301;DHT22;45073;52.740;6.784;2022-12-20T05:27:56;10.80;99.90
59301;DHT22;45073;52.740;6.784;2022-12-20T05:30:23;10.90;99.90
59301;DHT22;45073;52.740;6.784;2022-12-20T05:32:52;10.90;99.90
59301;DHT22;45073;52.740;6.784;2022-12-20T05:35:17;10.90;99.90
59301;DHT22;45073;52.740;6.784;2022-12-20T05:37:43;11.00;99.90
59301;DHT22;45073;52.740;6.784;2022-12-20T05:40:10;11.00;99.90
59301;DHT22;45073;52.740;6.784;2022-12-20T05:42:36;11.00;99.90
59301;DHT22;45073;52.740;6.784;2022-12-20T05:45:03;11.10;99.90
59301;DHT22;45073;52.740;6.784;2022-12-20T05:47:29;11.10;99.90
59301;DHT22;45073;52.740;6.784;2022-12-20T05:49:59;11.10;99.90
59301;DHT22;45073;52.740;6.784;2022-12-20T05:52:25;11.10;99.90
59301;DHT22;45073;52.740;6.784;2022-12-20T05:54:51;11.10;99.90
59301;DHT22;45073;52.740;6.784;2022-12-20T05:57:17;11.10;99.90
59301;DHT22;45073;52.740;6.784;2022-12-20T05:59:42;11.20;99.90
59301;DHT22;45073;52.740;6.784;2022-12-20T06:02:08;11.20;99.90
59301;DHT22;45073;52.740;6.784;2022-12-20T06:04:35;11.10;99.90
59301;DHT22;45073;52.740;6.784;2022-12-20T06:07:03;11.10;99.90
59301;DHT22;45073;52.740;6.784;2022-12-20T06:09:30;11.10;99.90
59301;DHT22;45073;52.740;6.784;2022-12-20T06:11:55;11.10;99.90
59301;DHT22;45073;52.740;6.784;2022-12-20T06:14:21;11.10;99.90
59301;DHT22;45073;52.740;6.784;2022-12-20T06:16:47;11.10;99.90
59301;DHT22;45073;52.740;6.784;2022-12-20T06:19:12;11.10;99.90
59301;DHT22;45073;52.740;6.784;2022-12-20T06:21:39;11.10;99.90
59301;DHT22;45073;52.740;6.784;2022-12-20T06:24:05;11.10;99.90
59301;DHT22;45073;52.740;6.784;2022-12-20T06:26:31;11.10;99.90
59301;DHT22;45073;52.740;6.784;2022-12-20T06:29:02;11.20;99.90
59301;DHT22;45073;52.740;6.784;2022-12-20T06:31:27;11.20;99.90
59301;DHT22;45073;52.740;6.784;2022-12-20T06:33:53;11.10;99.90
59301;DHT22;45073;52.740;6.784;2022-12-20T06:36:19;11.10;99.90
59301;DHT22;45073;52.740;6.784;2022-12-20T06:38:44;11.10;99.90
59301;DHT22;45073;52.740;6.784;2022-12-20T06:41:10;11.10;99.90
59301;DHT22;45073;52.740;6.784;2022-12-20T06:43:35;11.00;99.90
59301;DHT22;45073;52.740;6.784;2022-12-20T06:46:01;11.00;99.90
59301;DHT22;45073;52.740;6.784;2022-12-20T06:48:27;11.00;99.90
59301;DHT22;45073;52.740;6.784;2022-12-20T06:50:53;11.00;99.90
59301;DHT22;45073;52.740;6.784;2022-12-20T06:53:19;10.90;99.90
59301;DHT22;45073;52.740;6.784;2022-12-20T06:55:46;10.90;99.90
59301;DHT22;45073;52.740;6.784;2022-12-20T06:58:14;10.90;99.90
59301;DHT22;45073;52.740;6.784;2022-12-20T07:00:40;10.80;99.90
59301;DHT22;45073;52.740;6.784;2022-12-20T07:03:06;10.80;99.90
59301;DHT22;45073;52.740;6.784;2022-12-20T07:05:31;10.80;99.90
59301;DHT22;45073;52.740;6.784;2022-12-20T07:07:57;10.80;99.90
59301;DHT22;45073;52.740;6.784;2022-12-20T07:10:23;10.80;99.90
59301;DHT22;45073;52.740;6.784;2022-12-20T07:12:48;10.80;99.90
59301;DHT22;45073;52.740;6.784;2022-12-20T07:15:15;10.80;99.90
59301;DHT22;45073;52.740;6.784;2022-12-20T07:17:41;10.80;99.90
59301;DHT22;45073;52.740;6.784;2022-12-20T07:20:07;10.80;99.90
59301;DHT22;45073;52.740;6.784;2022-12-20T07:22:32;10.80;99.90
59301;DHT22;45073;52.740;6.784;2022-12-20T07:24:59;10.80;99.90
59301;DHT22;45073;52.740;6.784;2022-12-20T07:27:24;10.80;99.90
59301;DHT22;45073;52.740;6.784;2022-12-20T07:29:50;10.80;99.90
59301;DHT22;45073;52.740;6.784;2022-12-20T07:32:16;10.80;99.90
59301;DHT22;45073;52.740;6.784;2022-12-20T07:34:42;10.80;99.90
59301;DHT22;45073;52.740;6.784;2022-12-20T07:37:07;10.80;99.90
59301;DHT22;45073;52.740;6.784;2022-12-20T07:39:33;10.80;99.90
59301;DHT22;45073;52.740;6.784;2022-12-20T07:41:59;10.80;99.90
59301;DHT22;45073;52.740;6.784;2022-12-20T07:44:24;10.80;99.90
59301;DHT22;45073;52.740;6.784;2022-12-20T07:46:50;10.80;99.90
59301;DHT22;45073;52.740;6.784;2022-12-20T07:49:15;10.80;99.90
59301;DHT22;45073;52.740;6.784;2022-12-20T07:51:54;10.80;99.90
59301;DHT22;45073;52.740;6.784;2022-12-20T07:54:25;10.80;99.90
59301;DHT22;45073;52.740;6.784;2022-12-20T07:56:59;10.80;99.90
59301;DHT22;45073;52.740;6.784;2022-12-20T07:59:32;10.80;99.90
59301;DHT22;45073;52.740;6.784;2022-12-20T08:02:00;10.80;99.90
59301;DHT22;45073;52.740;6.784;2022-12-20T08:04:27;10.90;99.90
59301;DHT22;45073;52.740;6.784;2022-12-20T08:06:57;10.90;99.90
59301;DHT22;45073;52.740;6.784;2022-12-20T08:09:27;10.90;99.90
59301;DHT22;45073;52.740;6.784;2022-12-20T08:11:54;10.90;99.90
59301;DHT22;45073;52.740;6.784;2022-12-20T08:14:19;11.00;99.90
59301;DHT22;45073;52.740;6.784;2022-12-20T08:16:46;11.00;99.90
59301;DHT22;45073;52.740;6.784;2022-12-20T08:19:11;11.00;99.90
59301;DHT22;45073;52.740;6.784;2022-12-20T08:21:37;11.00;99.90
59301;DHT22;45073;52.740;6.784;2022-12-20T08:24:03;11.00;99.90
59301;DHT22;45073;52.740;6.784;2022-12-20T08:26:28;11.00;99.90
59301;DHT22;45073;52.740;6.784;2022-12-20T08:28:54;11.10;99.90
59301;DHT22;45073;52.740;6.784;2022-12-20T08:31:21;11.10;99.90
59301;DHT22;45073;52.740;6.784;2022-12-20T08:33:46;11.10;99.90
59301;DHT22;45073;52.740;6.784;2022-12-20T08:36:13;11.10;99.90
59301;DHT22;45073;52.740;6.784;2022-12-20T08:38:39;11.10;99.90
59301;DHT22;45073;52.740;6.784;2022-12-20T08:41:08;11.10;99.90
59301;DHT22;45073;52.740;6.784;2022-12-20T08:43:35;11.10;99.90
59301;DHT22;45073;52.740;6.784;2022-12-20T08:46:01;11.20;99.90
59301;DHT22;45073;52.740;6.784;2022-12-20T08:48:27;11.20;99.90
59301;DHT22;45073;52.740;6.784;2022-12-20T08:50:58;11.20;99.90
59301;DHT22;45073;52.740;6.784;2022-12-20T08:53:26;11.20;99.90
59301;DHT22;45073;52.740;6.784;2022-12-20T08:55:52;11.20;99.90
59301;DHT22;45073;52.740;6.784;2022-12-20T08:58:18;11.30;99.90
59301;DHT22;45073;52.740;6.784;2022-12-20T09:00:44;11.30;99.90
59301;DHT22;45073;52.740;6.784;2022-12-20T09:03:11;11.20;99.90
59301;DHT22;45073;52.740;6.784;2022-12-20T09:05:45;11.20;99.90
59301;DHT22;45073;52.740;6.784;2022-12-20T09:08:12;11.20;99.90
59301;DHT22;45073;52.740;6.784;2022-12-20T09:10:38;11.30;99.90
59301;DHT22;45073;52.740;6.784;2022-12-20T09:13:04;11.30;99.90
59301;DHT22;45073;52.740;6.784;2022-12-20T09:15:29;11.20;99.90
59301;DHT22;45073;52.740;6.784;2022-12-20T09:17:56;11.20;99.90
59301;DHT22;45073;52.740;6.784;2022-12-20T09:20:22;11.30;99.90
59301;DHT22;45073;52.740;6.784;2022-12-20T09:22:48;11.20;99.90
59301;DHT22;45073;52.740;6.784;2022-12-20T09:25:13;11.20;99.90
59301;DHT22;45073;52.740;6.784;2022-12-20T09:27:39;11.20;99.90
59301;DHT22;45073;52.740;6.784;2022-12-20T09:30:05;11.20;99.90
59301;DHT22;45073;52.740;6.784;2022-12-20T09:32:31;11.10;99.90
59301;DHT22;45073;52.740;6.784;2022-12-20T09:34:56;11.10;99.90
59301;DHT22;45073;52.740;6.784;2022-12-20T09:37:22;11.10;99.90
59301;DHT22;45073;52.740;6.784;2022-12-20T09:39:48;11.10;99.90
59301;DHT22;45073;52.740;6.784;2022-12-20T09:42:15;11.10;99.90
59301;DHT22;45073;52.740;6.784;2022-12-20T09:44:41;11.20;99.90
59301;DHT22;45073;52.740;6.784;2022-12-20T09:47:16;11.20;99.90
59301;DHT22;45073;52.740;6.784;2022-12-20T09:49:45;11.10;99.90
59301;DHT22;45073;52.740;6.784;2022-12-20T09:52:20;11.10;99.90
59301;DHT22;45073;52.740;6.784;2022-12-20T09:58:15;11.10;99.90
59301;DHT22;45073;52.740;6.784;2022-12-20T10:00:47;11.00;99.90
59301;DHT22;45073;52.740;6.784;2022-12-20T10:03:20;11.00;99.90
59301;DHT22;45073;52.740;6.784;2022-12-20T10:05:54;11.00;99.90
59301;DHT22;45073;52.740;6.784;2022-12-20T10:14:01;10.90;99.90
59301;DHT22;45073;52.740;6.784;2022-12-20T10:16:42;10.90;99.90
59301;DHT22;45073;52.740;6.784;2022-12-20T10:19:13;10.80;99.90
59301;DHT22;45073;52.740;6.784;2022-12-20T10:24:25;10.80;99.90
59301;DHT22;45073;52.740;6.784;2022-12-20T10:26:52;10.80;99.90
59301;DHT22;45073;52.740;6.784;2022-12-20T10:29:19;10.80;99.90
59301;DHT22;45073;52.740;6.784;2022-12-20T10:31:48;10.80;99.90
59301;DHT22;45073;52.740;6.784;2022-12-20T10:34:14;10.70;99.90
59301;DHT22;45073;52.740;6.784;2022-12-20T10:36:39;10.70;99.90
59301;DHT22;45073;52.740;6.784;2022-12-20T10:39:08;10.80;99.90
59301;DHT22;45073;52.740;6.784;2022-12-20T10:41:47;10.80;99.90
59301;DHT22;45073;52.740;6.784;2022-12-20T10:44:24;10.80;99.90
59301;DHT22;45073;52.740;6.784;2022-12-20T10:46:58;10.80;99.90
59301;DHT22;45073;52.740;6.784;2022-12-20T10:49:33;10.70;99.90
59301;DHT22;45073;52.740;6.784;2022-12-20T10:54:34;10.70;99.90
59301;DHT22;45073;52.740;6.784;2022-12-20T10:57:03;10.70;99.90
59301;DHT22;45073;52.740;6.784;2022-12-20T10:59:42;10.70;99.90
59301;DHT22;45073;52.740;6.784;2022-12-20T11:02:28;10.70;99.90
59301;DHT22;45073;52.740;6.784;2022-12-20T11:05:01;10.70;99.90
59301;DHT22;45073;52.740;6.784;2022-12-20T11:07:32;10.70;99.90
59301;DHT22;45073;52.740;6.784;2022-12-20T11:10:01;10.70;99.90
59301;DHT22;45073;52.740;6.784;2022-12-20T11:12:27;10.80;99.90
59301;DHT22;45073;52.740;6.784;2022-12-20T11:15:19;10.80;99.90
59301;DHT22;45073;52.740;6.784;2022-12-20T11:17:48;10.80;99.90
59301;DHT22;45073;52.740;6.784;2022-12-20T11:31:33;10.80;99.90
59301;DHT22;45073;52.740;6.784;2022-12-20T11:39:39;10.80;99.90
59301;DHT22;45073;52.740;6.784;2022-12-20T11:42:51;10.70;99.90
59301;DHT22;45073;52.740;6.784;2022-12-20T11:48:29;10.70;99.90
59301;DHT22;45073;52.740;6.784;2022-12-20T11:54:37;10.70;99.90
59301;DHT22;45073;52.740;6.784;2022-12-20T11:57:26;10.70;99.90
59301;DHT22;45073;52.740;6.784;2022-12-20T11:59:59;10.70;99.90
59301;DHT22;45073;52.740;6.784;2022-12-20T12:07:56;10.60;99.90
59301;DHT22;45073;52.740;6.784;2022-12-20T12:10:40;10.70;99.90
59301;DHT22;45073;52.740;6.784;2022-12-20T12:13:15;10.60;99.90
59301;DHT22;45073;52.740;6.784;2022-12-20T12:16:02;10.70;99.90
59301;DHT22;45073;52.740;6.784;2022-12-20T12:18:32;10.60;99.90
59301;DHT22;45073;52.740;6.784;2022-12-20T12:26:31;10.60;99.90
59301;DHT22;45073;52.740;6.784;2022-12-20T12:28:59;10.60;99.90
59301;DHT22;45073;52.740;6.784;2022-12-20T12:34:31;10.60;99.90
59301;DHT22;45073;52.740;6.784;2022-12-20T12:38:14;10.70;99.90
59301;DHT22;45073;52.740;6.784;2022-12-20T12:46:01;10.70;99.90
59301;DHT22;45073;52.740;6.784;2022-12-20T12:51:05;10.70;99.90
59301;DHT22;45073;52.740;6.784;2022-12-20T12:53:51;10.70;99.90
59301;DHT22;45073;52.740;6.784;2022-12-20T13:05:25;10.70;99.90
59301;DHT22;45073;52.740;6.784;2022-12-20T13:07:46;10.70;99.90
59301;DHT22;45073;52.740;6.784;2022-12-20T13:12:54;10.70;99.90
59301;DHT22;45073;52.740;6.784;2022-12-20T13:18:16;10.70;99.90
59301;DHT22;45073;52.740;6.784;2022-12-20T13:20:42;10.70;99.90
59301;DHT22;45073;52.740;6.784;2022-12-20T13:23:28;10.70;99.90
59301;DHT22;45073;52.740;6.784;2022-12-20T13:25:54;10.70;99.90
59301;DHT22;45073;52.740;6.784;2022-12-20T13:36:32;10.70;99.90
59301;DHT22;45073;52.740;6.784;2022-12-20T13:39:45;10.70;99.90
59301;DHT22;45073;52.740;6.784;2022-12-20T13:41:47;10.70;99.90
59301;DHT22;45073;52.740;6.784;2022-12-20T13:47:03;10.70;99.90
59301;DHT22;45073;52.740;6.784;2022-12-20T13:49:36;10.70;99.90
59301;DHT22;45073;52.740;6.784;2022-12-20T13:52:26;10.70;99.90
59301;DHT22;45073;52.740;6.784;2022-12-20T13:54:56;10.70;99.90
59301;DHT22;45073;52.740;6.784;2022-12-20T13:57:29;10.60;99.90
59301;DHT22;45073;52.740;6.784;2022-12-20T13:59:58;10.70;99.90
59301;DHT22;45073;52.740;6.784;2022-12-20T14:02:29;10.70;99.90
59301;DHT22;45073;52.740;6.784;2022-12-20T14:05:03;10.70;99.90
59301;DHT22;45073;52.740;6.784;2022-12-20T14:07:31;10.70;99.90
59301;DHT22;45073;52.740;6.784;2022-12-20T14:09:59;10.70;99.90
59301;DHT22;45073;52.740;6.784;2022-12-20T14:12:26;10.70;99.90
59301;DHT22;45073;52.740;6.784;2022-12-20T14:14:53;10.70;99.90
59301;DHT22;45073;52.740;6.784;2022-12-20T14:20:11;10.70;99.90
59301;DHT22;45073;52.740;6.784;2022-12-20T14:25:14;10.80;99.90
59301;DHT22;45073;52.740;6.784;2022-12-20T14:27:41;10.70;99.90
59301;DHT22;45073;52.740;6.784;2022-12-20T14:30:25;10.70;99.90
59301;DHT22;45073;52.740;6.784;2022-12-20T14:32:51;10.80;99.90
59301;DHT22;45073;52.740;6.784;2022-12-20T14:35:19;10.80;99.90
59301;DHT22;45073;52.740;6.784;2022-12-20T14:37:53;10.70;99.90
59301;DHT22;45073;52.740;6.784;2022-12-20T14:40:20;10.70;99.90
59301;DHT22;45073;52.740;6.784;2022-12-20T14:42:46;10.70;99.90
59301;DHT22;45073;52.740;6.784;2022-12-20T14:47:40;10.70;99.90
59301;DHT22;45073;52.740;6.784;2022-12-20T14:50:34;10.80;99.90
59301;DHT22;45073;52.740;6.784;2022-12-20T14:53:00;10.70;99.90
59301;DHT22;45073;52.740;6.784;2022-12-20T14:55:35;10.80;99.90
59301;DHT22;45073;52.740;6.784;2022-12-20T14:58:05;10.80;99.90
59301;DHT22;45073;52.740;6.784;2022-12-20T15:01:17;10.80;99.90
59301;DHT22;45073;52.740;6.784;2022-12-20T15:03:55;10.80;99.90
59301;DHT22;45073;52.740;6.784;2022-12-20T15:06:40;10.80;99.90
59301;DHT22;45073;52.740;6.784;2022-12-20T15:09:07;10.80;99.90
59301;DHT22;45073;52.740;6.784;2022-12-20T15:11:34;10.80;99.90
59301;DHT22;45073;52.740;6.784;2022-12-20T15:14:01;10.80;99.90
59301;DHT22;45073;52.740;6.784;2022-12-20T15:16:28;10.80;99.90
59301;DHT22;45073;52.740;6.784;2022-12-20T15:18:56;10.80;99.90
59301;DHT22;45073;52.740;6.784;2022-12-20T15:21:36;10.80;99.90
59301;DHT22;45073;52.740;6.784;2022-12-20T15:24:09;10.80;99.90
59301;DHT22;45073;52.740;6.784;2022-12-20T15:26:36;10.80;99.90
59301;DHT22;45073;52.740;6.784;2022-12-20T15:29:02;10.80;99.90
59301;DHT22;45073;52.740;6.784;2022-12-20T15:31:29;10.80;99.90
59301;DHT22;45073;52.740;6.784;2022-12-20T15:33:55;10.80;99.90
59301;DHT22;45073;52.740;6.784;2022-12-20T15:36:26;10.80;99.90
59301;DHT22;45073;52.740;6.784;2022-12-20T15:38:54;10.80;99.90
59301;DHT22;45073;52.740;6.784;2022-12-20T15:41:24;10.80;99.90
59301;DHT22;45073;52.740;6.784;2022-12-20T15:43:56;10.80;99.90
59301;DHT22;45073;52.740;6.784;2022-12-20T15:46:22;10.80;99.90
59301;DHT22;45073;52.740;6.784;2022-12-20T15:48:47;10.80;99.90
59301;DHT22;45073;52.740;6.784;2022-12-20T15:51:25;10.80;99.90
59301;DHT22;45073;52.740;6.784;2022-12-20T15:53:52;10.90;99.90
59301;DHT22;45073;52.740;6.784;2022-12-20T15:56:21;10.90;99.90
59301;DHT22;45073;52.740;6.784;2022-12-20T15:58:47;10.90;99.90
59301;DHT22;45073;52.740;6.784;2022-12-20T16:01:28;10.90;99.90
59301;DHT22;45073;52.740;6.784;2022-12-20T16:03:55;10.90;99.90
59301;DHT22;45073;52.740;6.784;2022-12-20T16:06:21;10.80;99.90
59301;DHT22;45073;52.740;6.784;2022-12-20T16:08:47;10.80;99.90
59301;DHT22;45073;52.740;6.784;2022-12-20T16:11:22;10.80;99.90
59301;DHT22;45073;52.740;6.784;2022-12-20T16:13:49;10.80;99.90
59301;DHT22;45073;52.740;6.784;2022-12-20T16:16:21;10.80;99.90
59301;DHT22;45073;52.740;6.784;2022-12-20T16:18:47;10.80;99.90
59301;DHT22;45073;52.740;6.784;2022-12-20T16:21:16;10.80;99.90
59301;DHT22;45073;52.740;6.784;2022-12-20T16:23:42;10.80;99.90
59301;DHT22;45073;52.740;6.784;2022-12-20T16:26:12;10.90;99.90
59301;DHT22;45073;52.740;6.784;2022-12-20T16:28:38;10.80;99.90
59301;DHT22;45073;52.740;6.784;2022-12-20T16:33:47;10.90;99.90
59301;DHT22;45073;52.740;6.784;2022-12-20T16:36:12;10.90;99.90
59301;DHT22;45073;52.740;6.784;2022-12-20T16:38:39;10.90;99.90
59301;DHT22;45073;52.740;6.784;2022-12-20T16:41:45;10.90;99.90
59301;DHT22;45073;52.740;6.784;2022-12-20T16:44:04;10.90;99.90
59301;DHT22;45073;52.740;6.784;2022-12-20T16:46:31;10.90;99.90
59301;DHT22;45073;52.740;6.784;2022-12-20T16:48:59;10.90;99.90
59301;DHT22;45073;52.740;6.784;2022-12-20T16:51:33;10.90;99.90
59301;DHT22;45073;52.740;6.784;2022-12-20T16:54:04;10.80;99.90
59301;DHT22;45073;52.740;6.784;2022-12-20T16:56:31;10.90;99.90
59301;DHT22;45073;52.740;6.784;2022-12-20T16:58:57;10.90;99.90
59301;DHT22;45073;52.740;6.784;2022-12-20T17:01:27;10.90;99.90
59301;DHT22;45073;52.740;6.784;2022-12-20T17:03:53;10.80;99.90
59301;DHT22;45073;52.740;6.784;2022-12-20T17:06:19;10.80;99.90
59301;DHT22;45073;52.740;6.784;2022-12-20T17:08:45;10.90;99.90
59301;DHT22;45073;52.740;6.784;2022-12-20T17:11:30;10.80;99.90
59301;DHT22;45073;52.740;6.784;2022-12-20T17:13:57;10.80;99.90
59301;DHT22;45073;52.740;6.784;2022-12-20T17:16:23;10.80;99.90
59301;DHT22;45073;52.740;6.784;2022-12-20T17:18:51;10.80;99.90
59301;DHT22;45073;52.740;6.784;2022-12-20T17:21:19;10.90;99.90
59301;DHT22;45073;52.740;6.784;2022-12-20T17:23:46;10.90;99.90
59301;DHT22;45073;52.740;6.784;2022-12-20T17:26:23;10.90;99.90
59301;DHT22;45073;52.740;6.784;2022-12-20T17:28:50;10.90;99.90
59301;DHT22;45073;52.740;6.784;2022-12-20T17:31:26;10.80;99.90
59301;DHT22;45073;52.740;6.784;2022-12-20T17:33:52;10.80;99.90